Cascade, MT

2:42 PM MST on February 21, 2017 (GMT -0700)
Trout Montana Fly Shop, Cascade, MT | | Change Station

Elev 3376 ft 47.27 °N, 111.70 °W | Updated 14 minutes ago

Overcast
Overcast
44.8 °F
Feels Like 40 °F
N
8.0
Wind Variable Wind from WSW
Gusts 15.0 mph

Today
High -- | Low -- °F
--% Chance of Precip.
Yesterday
High -- | Low -- °F
Precip. -- in
Pressure 29.67 in
Visibility 10.0 miles
Clouds Few 4000 ft
Mostly Cloudy 5000 ft
Overcast 6000 ft
Windchill 40 °F
Dew Point 36 °F
Humidity 72%
Rainfall 0.02 in
Snow Depth Not available.
7:20 AM 6:00 PM
Waning Crescent, 22% visible
METAR KGTF 212053Z 11005KT 10SM FEW040 BKN050 OVC060 06/02 A2961 RMK AO2 RAB39E49 SLP047 P0000 60000 T00560022 55003
Pressure 29.67 in
Visibility 10.0 miles
Clouds Few 4000 ft
Mostly Cloudy 5000 ft
Overcast 6000 ft
Windchill 40 °F
Dew Point 36 °F
Humidity 72%
Rainfall 0.02 in
Snow Depth Not available.
7:20 AM 6:00 PM
Waning Crescent, 22% visible
METAR KGTF 212053Z 11005KT 10SM FEW040 BKN050 OVC060 06/02 A2961 RMK AO2 RAB39E49 SLP047 P0000 60000 T00560022 55003

Get Your Daily Forecast Email!

Thanks for signing up!

Be on the lookout for a verification email in your inbox.

You'll start receiving the daily forecast at 8 AM.

×

10-Day Weather Forecast

Almanac

Astronomy

Feb. 21, 2017 Rise Set
Actual Time
Civil Twilight
Nautical Twilight
Astronomical Twilight
Moon
Length of Visible Light
Length of Day
Tomorrow will be .
, % of the Moon is Illuminated

Today's Extremes

State Highs State Lows

Community

WunderPhotos

Upload Photos

1,962,540 photos uploaded!

WunderBlog® & News

Nearby

Air Quality

  Air Quality AQ Index Pollutant
Not available.

Snow Depth

Station Depth Elevation

Earthquake Activity

City Distance Mag. Time & Date
Minimum magnitude displayed is 2.5.

Coastal Water Temperatures

Place Temperature

Stations

Nearby Weather Stations

Station Location Temp. Windchill Dew Point Humidity Wind Precip. Elev Updated Type
                   

Watches & Warnings

There are currently no watches in effect.